sensor_id;sensor_type;location;lat;lon;timestamp;temperature;humidity
19646;DHT22;9971;52.446;13.452;2023-11-19T00:02:29;7.70;99.90
19646;DHT22;9971;52.446;13.452;2023-11-19T00:07:32;7.70;99.90
19646;DHT22;9971;52.446;13.452;2023-11-19T00:12:37;7.70;99.90
19646;DHT22;9971;52.446;13.452;2023-11-19T00:17:41;7.70;99.90
19646;DHT22;9971;52.446;13.452;2023-11-19T00:22:42;7.70;99.90
19646;DHT22;9971;52.446;13.452;2023-11-19T00:27:44;7.70;99.90
19646;DHT22;9971;52.446;13.452;2023-11-19T00:32:46;7.70;99.90
19646;DHT22;9971;52.446;13.452;2023-11-19T00:37:48;7.70;99.90
19646;DHT22;9971;52.446;13.452;2023-11-19T00:42:51;7.70;99.90
19646;DHT22;9971;52.446;13.452;2023-11-19T00:47:55;7.80;99.90
19646;DHT22;9971;52.446;13.452;2023-11-19T00:53:00;7.70;99.90
19646;DHT22;9971;52.446;13.452;2023-11-19T00:58:03;7.80;99.90
19646;DHT22;9971;52.446;13.452;2023-11-19T01:03:05;7.80;99.90
19646;DHT22;9971;52.446;13.452;2023-11-19T01:08:14;7.80;99.90
19646;DHT22;9971;52.446;13.452;2023-11-19T01:13:17;7.80;99.90
19646;DHT22;9971;52.446;13.452;2023-11-19T01:18:19;7.80;99.90
19646;DHT22;9971;52.446;13.452;2023-11-19T01:23:24;7.80;99.90
19646;DHT22;9971;52.446;13.452;2023-11-19T01:28:30;7.90;99.90
19646;DHT22;9971;52.446;13.452;2023-11-19T01:33:32;7.90;99.90
19646;DHT22;9971;52.446;13.452;2023-11-19T01:38:40;7.90;99.90
19646;DHT22;9971;52.446;13.452;2023-11-19T01:43:42;7.90;99.90
19646;DHT22;9971;52.446;13.452;2023-11-19T01:48:45;7.90;99.90
19646;DHT22;9971;52.446;13.452;2023-11-19T01:53:46;8.00;99.90
19646;DHT22;9971;52.446;13.452;2023-11-19T01:58:48;8.00;99.90
19646;DHT22;9971;52.446;13.452;2023-11-19T02:03:51;8.00;99.90
19646;DHT22;9971;52.446;13.452;2023-11-19T02:08:52;8.00;99.90
19646;DHT22;9971;52.446;13.452;2023-11-19T02:13:56;7.90;99.90
19646;DHT22;9971;52.446;13.452;2023-11-19T02:18:58;8.00;99.90
19646;DHT22;9971;52.446;13.452;2023-11-19T02:45:25;8.00;99.90
19646;DHT22;9971;52.446;13.452;2023-11-19T03:06:31;8.10;99.90
19646;DHT22;9971;52.446;13.452;2023-11-19T03:11:34;8.10;99.90
19646;DHT22;9971;52.446;13.452;2023-11-19T03:16:36;8.10;99.90
19646;DHT22;9971;52.446;13.452;2023-11-19T03:21:41;8.10;99.90
19646;DHT22;9971;52.446;13.452;2023-11-19T03:26:48;8.10;99.90
19646;DHT22;9971;52.446;13.452;2023-11-19T03:31:46;8.10;99.90
19646;DHT22;9971;52.446;13.452;2023-11-19T03:36:48;8.10;99.90
19646;DHT22;9971;52.446;13.452;2023-11-19T03:41:50;8.10;99.90
19646;DHT22;9971;52.446;13.452;2023-11-19T03:46:53;8.10;99.90
19646;DHT22;9971;52.446;13.452;2023-11-19T03:51:55;8.10;99.90
19646;DHT22;9971;52.446;13.452;2023-11-19T03:56:57;8.00;99.90
19646;DHT22;9971;52.446;13.452;2023-11-19T04:02:00;7.90;99.90
19646;DHT22;9971;52.446;13.452;2023-11-19T04:07:02;7.90;99.90
19646;DHT22;9971;52.446;13.452;2023-11-19T04:12:05;7.90;99.90
19646;DHT22;9971;52.446;13.452;2023-11-19T04:17:07;7.90;99.90
19646;DHT22;9971;52.446;13.452;2023-11-19T04:22:13;7.80;99.90
19646;DHT22;9971;52.446;13.452;2023-11-19T04:27:15;7.90;99.90
19646;DHT22;9971;52.446;13.452;2023-11-19T04:32:17;7.80;99.90
19646;DHT22;9971;52.446;13.452;2023-11-19T04:37:19;7.80;99.90
19646;DHT22;9971;52.446;13.452;2023-11-19T04:42:23;7.80;99.90
19646;DHT22;9971;52.446;13.452;2023-11-19T04:47:25;7.80;99.90
19646;DHT22;9971;52.446;13.452;2023-11-19T04:52:28;7.80;99.90
19646;DHT22;9971;52.446;13.452;2023-11-19T04:57:30;7.80;99.90
19646;DHT22;9971;52.446;13.452;2023-11-19T05:02:34;7.80;99.90
19646;DHT22;9971;52.446;13.452;2023-11-19T05:07:36;7.80;99.90
19646;DHT22;9971;52.446;13.452;2023-11-19T05:12:38;7.80;99.90
19646;DHT22;9971;52.446;13.452;2023-11-19T05:17:41;7.80;99.90
19646;DHT22;9971;52.446;13.452;2023-11-19T05:22:43;7.80;99.90
19646;DHT22;9971;52.446;13.452;2023-11-19T05:27:45;7.90;99.90
19646;DHT22;9971;52.446;13.452;2023-11-19T05:32:48;7.90;99.90
19646;DHT22;9971;52.446;13.452;2023-11-19T05:37:53;7.90;99.90
19646;DHT22;9971;52.446;13.452;2023-11-19T05:42:58;7.90;99.90
19646;DHT22;9971;52.446;13.452;2023-11-19T05:48:03;7.90;99.90
19646;DHT22;9971;52.446;13.452;2023-11-19T05:53:08;7.90;99.90
19646;DHT22;9971;52.446;13.452;2023-11-19T05:58:11;8.00;99.90
19646;DHT22;9971;52.446;13.452;2023-11-19T06:03:13;8.00;99.90
19646;DHT22;9971;52.446;13.452;2023-11-19T06:08:17;8.10;99.90
19646;DHT22;9971;52.446;13.452;2023-11-19T06:13:20;8.10;99.90
19646;DHT22;9971;52.446;13.452;2023-11-19T06:18:25;8.10;99.90
19646;DHT22;9971;52.446;13.452;2023-11-19T06:23:29;8.10;99.90
19646;DHT22;9971;52.446;13.452;2023-11-19T06:28:31;8.10;99.90
19646;DHT22;9971;52.446;13.452;2023-11-19T06:33:33;8.10;99.90
19646;DHT22;9971;52.446;13.452;2023-11-19T06:38:36;8.10;99.90
19646;DHT22;9971;52.446;13.452;2023-11-19T06:43:38;8.20;99.90
19646;DHT22;9971;52.446;13.452;2023-11-19T06:48:42;8.10;99.90
19646;DHT22;9971;52.446;13.452;2023-11-19T06:53:46;8.20;99.90
19646;DHT22;9971;52.446;13.452;2023-11-19T06:58:48;8.20;99.90
19646;DHT22;9971;52.446;13.452;2023-11-19T07:03:50;8.20;99.90
19646;DHT22;9971;52.446;13.452;2023-11-19T07:08:53;8.20;99.90
19646;DHT22;9971;52.446;13.452;2023-11-19T07:13:55;8.30;99.90
19646;DHT22;9971;52.446;13.452;2023-11-19T07:18:57;8.30;99.90
19646;DHT22;9971;52.446;13.452;2023-11-19T07:24:00;8.30;99.90
19646;DHT22;9971;52.446;13.452;2023-11-19T07:29:02;8.40;99.90
19646;DHT22;9971;52.446;13.452;2023-11-19T07:34:04;8.40;99.90
19646;DHT22;9971;52.446;13.452;2023-11-19T07:39:06;8.30;99.90
19646;DHT22;9971;52.446;13.452;2023-11-19T07:44:09;8.30;99.90
19646;DHT22;9971;52.446;13.452;2023-11-19T07:49:11;8.40;99.90
19646;DHT22;9971;52.446;13.452;2023-11-19T07:54:13;8.40;99.90
19646;DHT22;9971;52.446;13.452;2023-11-19T07:59:17;8.50;99.90
19646;DHT22;9971;52.446;13.452;2023-11-19T08:04:19;8.50;99.90
19646;DHT22;9971;52.446;13.452;2023-11-19T08:09:22;8.60;99.90
19646;DHT22;9971;52.446;13.452;2023-11-19T08:14:24;8.60;99.90
19646;DHT22;9971;52.446;13.452;2023-11-19T08:19:27;8.70;99.90
19646;DHT22;9971;52.446;13.452;2023-11-19T08:24:29;8.80;99.90
19646;DHT22;9971;52.446;13.452;2023-11-19T08:29:31;8.80;99.90
19646;DHT22;9971;52.446;13.452;2023-11-19T08:34:34;8.90;99.90
19646;DHT22;9971;52.446;13.452;2023-11-19T08:39:36;9.00;99.90
19646;DHT22;9971;52.446;13.452;2023-11-19T08:44:39;9.10;99.90
19646;DHT22;9971;52.446;13.452;2023-11-19T08:49:42;9.20;99.90
19646;DHT22;9971;52.446;13.452;2023-11-19T08:54:45;9.30;99.90
19646;DHT22;9971;52.446;13.452;2023-11-19T08:59:47;9.40;99.90
19646;DHT22;9971;52.446;13.452;2023-11-19T09:04:50;9.50;99.90
19646;DHT22;9971;52.446;13.452;2023-11-19T09:09:54;9.60;99.90
19646;DHT22;9971;52.446;13.452;2023-11-19T09:14:58;9.70;99.90
19646;DHT22;9971;52.446;13.452;2023-11-19T09:20:05;9.80;99.90
19646;DHT22;9971;52.446;13.452;2023-11-19T09:25:15;10.00;99.90
19646;DHT22;9971;52.446;13.452;2023-11-19T09:30:19;10.10;99.90
19646;DHT22;9971;52.446;13.452;2023-11-19T09:35:23;10.30;99.90
19646;DHT22;9971;52.446;13.452;2023-11-19T09:45:40;10.80;99.90
19646;DHT22;9971;52.446;13.452;2023-11-19T09:56:06;11.30;99.90
19646;DHT22;9971;52.446;13.452;2023-11-19T10:01:14;11.40;99.90
19646;DHT22;9971;52.446;13.452;2023-11-19T10:06:16;11.80;99.90
19646;DHT22;9971;52.446;13.452;2023-11-19T10:11:23;12.30;99.90
19646;DHT22;9971;52.446;13.452;2023-11-19T10:16:34;12.80;99.90
19646;DHT22;9971;52.446;13.452;2023-11-19T10:43:12;14.60;99.90
19646;DHT22;9971;52.446;13.452;2023-11-19T10:48:28;14.90;99.90
19646;DHT22;9971;52.446;13.452;2023-11-19T10:53:42;15.10;99.90
19646;DHT22;9971;52.446;13.452;2023-11-19T10:58:46;15.30;99.90
19646;DHT22;9971;52.446;13.452;2023-11-19T11:03:48;15.50;99.90
19646;DHT22;9971;52.446;13.452;2023-11-19T11:13:58;15.80;99.90
19646;DHT22;9971;52.446;13.452;2023-11-19T11:19:03;16.00;99.90
19646;DHT22;9971;52.446;13.452;2023-11-19T11:29:35;16.20;99.90
19646;DHT22;9971;52.446;13.452;2023-11-19T11:39:57;16.50;99.90
19646;DHT22;9971;52.446;13.452;2023-11-19T11:50:17;16.80;99.90
19646;DHT22;9971;52.446;13.452;2023-11-19T11:55:19;16.90;99.90
19646;DHT22;9971;52.446;13.452;2023-11-19T12:00:30;17.00;99.90
19646;DHT22;9971;52.446;13.452;2023-11-19T12:05:42;17.10;99.90
19646;DHT22;9971;52.446;13.452;2023-11-19T12:10:46;17.20;99.90
19646;DHT22;9971;52.446;13.452;2023-11-19T12:21:11;17.40;99.90
19646;DHT22;9971;52.446;13.452;2023-11-19T12:26:37;17.50;99.90
19646;DHT22;9971;52.446;13.452;2023-11-19T12:31:38;17.50;99.90
19646;DHT22;9971;52.446;13.452;2023-11-19T12:36:41;17.50;99.90
19646;DHT22;9971;52.446;13.452;2023-11-19T12:41:49;17.60;99.90
19646;DHT22;9971;52.446;13.452;2023-11-19T12:47:00;17.60;99.90
19646;DHT22;9971;52.446;13.452;2023-11-19T12:52:01;17.60;99.90
19646;DHT22;9971;52.446;13.452;2023-11-19T12:57:04;17.70;99.90
19646;DHT22;9971;52.446;13.452;2023-11-19T13:02:05;17.70;99.90
19646;DHT22;9971;52.446;13.452;2023-11-19T13:07:07;17.80;99.90
19646;DHT22;9971;52.446;13.452;2023-11-19T13:12:12;17.80;99.90
19646;DHT22;9971;52.446;13.452;2023-11-19T13:17:15;17.80;99.90
19646;DHT22;9971;52.446;13.452;2023-11-19T13:22:17;17.90;99.90
19646;DHT22;9971;52.446;13.452;2023-11-19T13:27:20;17.90;99.90
19646;DHT22;9971;52.446;13.452;2023-11-19T13:32:23;17.90;99.90
19646;DHT22;9971;52.446;13.452;2023-11-19T13:37:27;17.90;99.90
19646;DHT22;9971;52.446;13.452;2023-11-19T13:42:28;17.90;99.90
19646;DHT22;9971;52.446;13.452;2023-11-19T13:47:31;18.00;99.90
19646;DHT22;9971;52.446;13.452;2023-11-19T13:52:33;18.00;99.90
19646;DHT22;9971;52.446;13.452;2023-11-19T13:57:36;18.10;99.90
19646;DHT22;9971;52.446;13.452;2023-11-19T14:02:39;18.20;99.90
19646;DHT22;9971;52.446;13.452;2023-11-19T14:07:41;18.20;99.90
19646;DHT22;9971;52.446;13.452;2023-11-19T14:12:42;18.20;99.90
19646;DHT22;9971;52.446;13.452;2023-11-19T14:17:45;18.30;99.90
19646;DHT22;9971;52.446;13.452;2023-11-19T14:22:47;18.30;99.90
19646;DHT22;9971;52.446;13.452;2023-11-19T14:27:50;18.40;99.90
19646;DHT22;9971;52.446;13.452;2023-11-19T14:32:52;18.40;99.90
19646;DHT22;9971;52.446;13.452;2023-11-19T14:37:55;18.40;99.90
19646;DHT22;9971;52.446;13.452;2023-11-19T14:42:57;18.40;99.90
19646;DHT22;9971;52.446;13.452;2023-11-19T14:47:59;18.50;99.90
19646;DHT22;9971;52.446;13.452;2023-11-19T14:53:02;18.50;99.90
19646;DHT22;9971;52.446;13.452;2023-11-19T14:58:04;18.50;99.90
19646;DHT22;9971;52.446;13.452;2023-11-19T15:03:06;18.50;99.90
19646;DHT22;9971;52.446;13.452;2023-11-19T15:08:08;18.60;99.90
19646;DHT22;9971;52.446;13.452;2023-11-19T15:13:11;18.50;99.90
19646;DHT22;9971;52.446;13.452;2023-11-19T15:18:13;18.60;99.90
19646;DHT22;9971;52.446;13.452;2023-11-19T15:23:15;18.60;99.90
19646;DHT22;9971;52.446;13.452;2023-11-19T15:28:17;18.60;99.90
19646;DHT22;9971;52.446;13.452;2023-11-19T15:33:20;18.60;99.90
19646;DHT22;9971;52.446;13.452;2023-11-19T15:38:23;18.60;99.90
19646;DHT22;9971;52.446;13.452;2023-11-19T15:43:25;18.70;99.90
19646;DHT22;9971;52.446;13.452;2023-11-19T15:48:28;18.70;99.90
19646;DHT22;9971;52.446;13.452;2023-11-19T15:53:30;18.70;99.90
19646;DHT22;9971;52.446;13.452;2023-11-19T15:58:33;18.80;99.90
19646;DHT22;9971;52.446;13.452;2023-11-19T16:03:36;18.80;99.90
19646;DHT22;9971;52.446;13.452;2023-11-19T16:08:38;18.80;99.90
19646;DHT22;9971;52.446;13.452;2023-11-19T16:13:40;18.90;99.90
19646;DHT22;9971;52.446;13.452;2023-11-19T16:18:43;18.90;99.90
19646;DHT22;9971;52.446;13.452;2023-11-19T16:23:45;18.90;99.90
19646;DHT22;9971;52.446;13.452;2023-11-19T16:28:47;18.90;99.90
19646;DHT22;9971;52.446;13.452;2023-11-19T16:33:50;18.90;99.90
19646;DHT22;9971;52.446;13.452;2023-11-19T16:38:53;19.00;99.90
19646;DHT22;9971;52.446;13.452;2023-11-19T16:43:55;19.00;99.90
19646;DHT22;9971;52.446;13.452;2023-11-19T16:48:57;19.10;99.90
19646;DHT22;9971;52.446;13.452;2023-11-19T16:54:00;19.10;99.90
19646;DHT22;9971;52.446;13.452;2023-11-19T16:59:02;19.10;99.90
19646;DHT22;9971;52.446;13.452;2023-11-19T17:04:05;19.10;99.90
19646;DHT22;9971;52.446;13.452;2023-11-19T17:09:07;19.10;99.90
19646;DHT22;9971;52.446;13.452;2023-11-19T17:14:09;19.20;99.90
19646;DHT22;9971;52.446;13.452;2023-11-19T17:19:12;19.10;99.90
19646;DHT22;9971;52.446;13.452;2023-11-19T17:24:14;19.10;99.90
19646;DHT22;9971;52.446;13.452;2023-11-19T17:29:17;19.10;99.90
19646;DHT22;9971;52.446;13.452;2023-11-19T17:34:19;19.10;99.90
19646;DHT22;9971;52.446;13.452;2023-11-19T17:39:21;19.10;99.90
19646;DHT22;9971;52.446;13.452;2023-11-19T17:44:24;19.20;99.90
19646;DHT22;9971;52.446;13.452;2023-11-19T17:49:26;19.20;99.90
19646;DHT22;9971;52.446;13.452;2023-11-19T17:54:29;19.20;99.90
19646;DHT22;9971;52.446;13.452;2023-11-19T17:59:31;19.30;99.90
19646;DHT22;9971;52.446;13.452;2023-11-19T18:04:33;19.30;99.90
19646;DHT22;9971;52.446;13.452;2023-11-19T18:09:36;19.30;99.90
19646;DHT22;9971;52.446;13.452;2023-11-19T18:14:38;19.30;99.90
19646;DHT22;9971;52.446;13.452;2023-11-19T18:19:40;19.30;99.90
19646;DHT22;9971;52.446;13.452;2023-11-19T18:24:42;19.30;99.90
19646;DHT22;9971;52.446;13.452;2023-11-19T18:29:45;19.30;99.90
19646;DHT22;9971;52.446;13.452;2023-11-19T18:34:48;19.30;99.90
19646;DHT22;9971;52.446;13.452;2023-11-19T18:39:50;19.30;99.90
19646;DHT22;9971;52.446;13.452;2023-11-19T18:44:53;19.20;99.90
19646;DHT22;9971;52.446;13.452;2023-11-19T18:49:55;19.20;99.90
19646;DHT22;9971;52.446;13.452;2023-11-19T18:54:58;19.20;99.90
19646;DHT22;9971;52.446;13.452;2023-11-19T19:00:00;19.20;99.90
19646;DHT22;9971;52.446;13.452;2023-11-19T19:05:02;19.20;99.90
19646;DHT22;9971;52.446;13.452;2023-11-19T19:10:06;19.30;99.90
19646;DHT22;9971;52.446;13.452;2023-11-19T19:15:09;19.30;99.90
19646;DHT22;9971;52.446;13.452;2023-11-19T19:20:11;19.40;99.90
19646;DHT22;9971;52.446;13.452;2023-11-19T19:25:13;19.40;99.90
19646;DHT22;9971;52.446;13.452;2023-11-19T19:30:16;19.40;99.90
19646;DHT22;9971;52.446;13.452;2023-11-19T19:35:18;19.50;99.90
19646;DHT22;9971;52.446;13.452;2023-11-19T19:40:20;19.50;99.90
19646;DHT22;9971;52.446;13.452;2023-11-19T19:45:22;19.50;99.90
19646;DHT22;9971;52.446;13.452;2023-11-19T19:50:25;19.50;99.90
19646;DHT22;9971;52.446;13.452;2023-11-19T19:55:27;19.50;99.90
19646;DHT22;9971;52.446;13.452;2023-11-19T20:00:30;19.50;99.90
19646;DHT22;9971;52.446;13.452;2023-11-19T20:05:32;19.50;99.90
19646;DHT22;9971;52.446;13.452;2023-11-19T20:10:35;19.50;99.90
19646;DHT22;9971;52.446;13.452;2023-11-19T20:15:37;19.50;99.90
19646;DHT22;9971;52.446;13.452;2023-11-19T20:20:39;19.50;99.90
19646;DHT22;9971;52.446;13.452;2023-11-19T20:25:42;19.50;99.90
19646;DHT22;9971;52.446;13.452;2023-11-19T20:30:44;19.50;99.90
19646;DHT22;9971;52.446;13.452;2023-11-19T20:35:47;19.40;99.90
19646;DHT22;9971;52.446;13.452;2023-11-19T20:40:49;19.40;99.90
19646;DHT22;9971;52.446;13.452;2023-11-19T20:45:52;19.50;99.90
19646;DHT22;9971;52.446;13.452;2023-11-19T20:50:54;19.40;99.90
19646;DHT22;9971;52.446;13.452;2023-11-19T20:55:58;19.40;99.90
19646;DHT22;9971;52.446;13.452;2023-11-19T21:01:00;19.40;99.90
19646;DHT22;9971;52.446;13.452;2023-11-19T21:06:03;19.40;99.90
19646;DHT22;9971;52.446;13.452;2023-11-19T21:11:07;19.40;99.90
19646;DHT22;9971;52.446;13.452;2023-11-19T21:16:07;19.40;99.90
19646;DHT22;9971;52.446;13.452;2023-11-19T21:21:09;19.40;99.90
19646;DHT22;9971;52.446;13.452;2023-11-19T21:26:11;19.40;99.90
19646;DHT22;9971;52.446;13.452;2023-11-19T21:31:14;19.40;99.90
19646;DHT22;9971;52.446;13.452;2023-11-19T21:36:16;19.40;99.90
19646;DHT22;9971;52.446;13.452;2023-11-19T21:41:18;19.40;99.90
19646;DHT22;9971;52.446;13.452;2023-11-19T21:46:21;19.40;99.90
19646;DHT22;9971;52.446;13.452;2023-11-19T21:51:23;19.40;99.90
19646;DHT22;9971;52.446;13.452;2023-11-19T21:56:25;19.40;99.90
19646;DHT22;9971;52.446;13.452;2023-11-19T22:01:28;19.40;99.90
19646;DHT22;9971;52.446;13.452;2023-11-19T22:06:31;19.40;99.90
19646;DHT22;9971;52.446;13.452;2023-11-19T22:11:33;19.40;99.90
19646;DHT22;9971;52.446;13.452;2023-11-19T22:16:37;19.40;99.90
19646;DHT22;9971;52.446;13.452;2023-11-19T22:21:39;19.40;99.90
19646;DHT22;9971;52.446;13.452;2023-11-19T22:26:41;19.50;99.90
19646;DHT22;9971;52.446;13.452;2023-11-19T22:31:43;19.50;99.90
19646;DHT22;9971;52.446;13.452;2023-11-19T22:36:45;19.50;99.90
19646;DHT22;9971;52.446;13.452;2023-11-19T22:41:48;19.40;99.90
19646;DHT22;9971;52.446;13.452;2023-11-19T22:46:50;19.50;99.90
19646;DHT22;9971;52.446;13.452;2023-11-19T22:51:53;19.50;99.90
19646;DHT22;9971;52.446;13.452;2023-11-19T22:56:55;19.50;99.90
19646;DHT22;9971;52.446;13.452;2023-11-19T23:01:58;19.50;99.90
19646;DHT22;9971;52.446;13.452;2023-11-19T23:07:00;19.40;99.90
19646;DHT22;9971;52.446;13.452;2023-11-19T23:12:02;19.40;99.90
19646;DHT22;9971;52.446;13.452;2023-11-19T23:17:05;19.40;99.90
19646;DHT22;9971;52.446;13.452;2023-11-19T23:22:07;19.50;99.90
19646;DHT22;9971;52.446;13.452;2023-11-19T23:27:09;19.40;99.90
19646;DHT22;9971;52.446;13.452;2023-11-19T23:32:12;19.40;99.90
19646;DHT22;9971;52.446;13.452;2023-11-19T23:37:14;19.40;99.90
19646;DHT22;9971;52.446;13.452;2023-11-19T23:42:17;17.00;99.90
19646;DHT22;9971;52.446;13.452;2023-11-19T23:47:19;14.70;99.90
19646;DHT22;9971;52.446;13.452;2023-11-19T23:52:22;13.60;99.90
19646;DHT22;9971;52.446;13.452;2023-11-19T23:57:25;13.00;99.90
